sensor_id;sensor_type;location;lat;lon;timestamp;P1;durP1;ratioP1;P2;durP2;ratioP2
50417;SDS011;36346;48.280;14.292;2022-09-09T00:00:55;4.44;;;4.44;;
50417;SDS011;36346;48.280;14.292;2022-09-09T00:03:40;4.48;;;4.48;;
50417;SDS011;36346;48.280;14.292;2022-09-09T00:11:17;4.25;;;4.24;;
50417;SDS011;36346;48.280;14.292;2022-09-09T00:13:57;4.56;;;4.55;;
50417;SDS011;36346;48.280;14.292;2022-09-09T00:16:30;4.63;;;4.63;;
50417;SDS011;36346;48.280;14.292;2022-09-09T00:21:53;4.26;;;4.26;;
50417;SDS011;36346;48.280;14.292;2022-09-09T00:24:27;4.35;;;4.35;;
50417;SDS011;36346;48.280;14.292;2022-09-09T00:27:01;4.98;;;4.98;;
50417;SDS011;36346;48.280;14.292;2022-09-09T00:29:37;4.79;;;4.79;;
50417;SDS011;36346;48.280;14.292;2022-09-09T00:32:14;4.71;;;4.71;;
50417;SDS011;36346;48.280;14.292;2022-09-09T00:34:54;4.65;;;4.65;;
50417;SDS011;36346;48.280;14.292;2022-09-09T00:37:25;4.43;;;4.43;;
50417;SDS011;36346;48.280;14.292;2022-09-09T00:39:55;4.75;;;4.74;;
50417;SDS011;36346;48.280;14.292;2022-09-09T00:42:43;4.41;;;4.41;;
50417;SDS011;36346;48.280;14.292;2022-09-09T00:47:55;4.63;;;4.63;;
50417;SDS011;36346;48.280;14.292;2022-09-09T00:57:55;4.20;;;4.19;;
50417;SDS011;36346;48.280;14.292;2022-09-09T01:00:24;4.36;;;4.35;;
50417;SDS011;36346;48.280;14.292;2022-09-09T01:06:27;4.36;;;4.35;;
50417;SDS011;36346;48.280;14.292;2022-09-09T01:11:22;4.73;;;4.73;;
50417;SDS011;36346;48.280;14.292;2022-09-09T01:13:52;4.83;;;4.83;;
50417;SDS011;36346;48.280;14.292;2022-09-09T01:16:23;4.60;;;4.60;;
50417;SDS011;36346;48.280;14.292;2022-09-09T01:18:51;4.47;;;4.47;;
50417;SDS011;36346;48.280;14.292;2022-09-09T01:24:12;4.99;;;4.98;;
50417;SDS011;36346;48.280;14.292;2022-09-09T01:27:14;4.65;;;4.65;;
50417;SDS011;36346;48.280;14.292;2022-09-09T01:29:44;4.85;;;4.85;;
50417;SDS011;36346;48.280;14.292;2022-09-09T01:35:00;4.91;;;4.91;;
50417;SDS011;36346;48.280;14.292;2022-09-09T01:37:29;4.43;;;4.43;;
50417;SDS011;36346;48.280;14.292;2022-09-09T01:39:57;4.73;;;4.73;;
50417;SDS011;36346;48.280;14.292;2022-09-09T01:42:25;4.49;;;4.49;;
50417;SDS011;36346;48.280;14.292;2022-09-09T01:44:53;4.68;;;4.68;;
50417;SDS011;36346;48.280;14.292;2022-09-09T01:47:21;4.41;;;4.41;;
50417;SDS011;36346;48.280;14.292;2022-09-09T01:50:16;4.23;;;4.23;;
50417;SDS011;36346;48.280;14.292;2022-09-09T01:52:45;4.23;;;4.23;;
50417;SDS011;36346;48.280;14.292;2022-09-09T01:55:20;4.47;;;4.47;;
50417;SDS011;36346;48.280;14.292;2022-09-09T02:00:43;4.45;;;4.45;;
50417;SDS011;36346;48.280;14.292;2022-09-09T02:06:18;4.79;;;4.79;;
50417;SDS011;36346;48.280;14.292;2022-09-09T02:08:50;4.59;;;4.59;;
50417;SDS011;36346;48.280;14.292;2022-09-09T02:11:20;4.25;;;4.24;;
50417;SDS011;36346;48.280;14.292;2022-09-09T02:14:16;4.45;;;4.45;;
50417;SDS011;36346;48.280;14.292;2022-09-09T02:16:50;4.56;;;4.56;;
50417;SDS011;36346;48.280;14.292;2022-09-09T02:19:27;4.80;;;4.80;;
50417;SDS011;36346;48.280;14.292;2022-09-09T02:22:18;4.58;;;4.58;;
50417;SDS011;36346;48.280;14.292;2022-09-09T02:24:49;4.58;;;4.58;;
50417;SDS011;36346;48.280;14.292;2022-09-09T02:27:24;4.48;;;4.48;;
50417;SDS011;36346;48.280;14.292;2022-09-09T02:29:53;4.29;;;4.29;;
50417;SDS011;36346;48.280;14.292;2022-09-09T02:32:35;4.45;;;4.45;;
50417;SDS011;36346;48.280;14.292;2022-09-09T02:35:10;4.51;;;4.51;;
50417;SDS011;36346;48.280;14.292;2022-09-09T02:37:41;4.73;;;4.73;;
50417;SDS011;36346;48.280;14.292;2022-09-09T02:40:11;4.47;;;4.47;;
50417;SDS011;36346;48.280;14.292;2022-09-09T02:42:47;4.60;;;4.60;;
50417;SDS011;36346;48.280;14.292;2022-09-09T02:45:19;4.44;;;4.44;;
50417;SDS011;36346;48.280;14.292;2022-09-09T02:47:56;4.39;;;4.39;;
50417;SDS011;36346;48.280;14.292;2022-09-09T02:50:38;4.37;;;4.37;;
50417;SDS011;36346;48.280;14.292;2022-09-09T02:53:16;4.91;;;4.91;;
50417;SDS011;36346;48.280;14.292;2022-09-09T02:55:59;4.56;;;4.56;;
50417;SDS011;36346;48.280;14.292;2022-09-09T02:58:35;4.65;;;4.65;;
50417;SDS011;36346;48.280;14.292;2022-09-09T03:01:06;4.31;;;4.31;;
50417;SDS011;36346;48.280;14.292;2022-09-09T03:03:34;4.67;;;4.67;;
50417;SDS011;36346;48.280;14.292;2022-09-09T03:06:07;4.45;;;4.45;;
50417;SDS011;36346;48.280;14.292;2022-09-09T03:08:34;4.69;;;4.69;;
50417;SDS011;36346;48.280;14.292;2022-09-09T03:11:03;4.45;;;4.45;;
50417;SDS011;36346;48.280;14.292;2022-09-09T03:13:34;4.45;;;4.45;;
50417;SDS011;36346;48.280;14.292;2022-09-09T03:16:02;4.13;;;4.13;;
50417;SDS011;36346;48.280;14.292;2022-09-09T03:18:35;4.85;;;4.85;;
50417;SDS011;36346;48.280;14.292;2022-09-09T03:21:02;5.09;;;5.09;;
50417;SDS011;36346;48.280;14.292;2022-09-09T03:23:30;4.47;;;4.47;;
50417;SDS011;36346;48.280;14.292;2022-09-09T03:26:01;4.23;;;4.23;;
50417;SDS011;36346;48.280;14.292;2022-09-09T03:28:39;4.36;;;4.35;;
50417;SDS011;36346;48.280;14.292;2022-09-09T03:31:07;4.88;;;4.88;;
50417;SDS011;36346;48.280;14.292;2022-09-09T03:33:40;4.92;;;4.92;;
50417;SDS011;36346;48.280;14.292;2022-09-09T03:36:11;4.40;;;4.40;;
50417;SDS011;36346;48.280;14.292;2022-09-09T03:38:39;4.42;;;4.42;;
50417;SDS011;36346;48.280;14.292;2022-09-09T03:41:07;4.29;;;4.29;;
50417;SDS011;36346;48.280;14.292;2022-09-09T03:43:36;4.64;;;4.64;;
50417;SDS011;36346;48.280;14.292;2022-09-09T03:46:05;4.41;;;4.41;;
50417;SDS011;36346;48.280;14.292;2022-09-09T03:48:33;4.34;;;4.34;;
50417;SDS011;36346;48.280;14.292;2022-09-09T03:51:00;4.59;;;4.59;;
50417;SDS011;36346;48.280;14.292;2022-09-09T03:53:31;4.89;;;4.89;;
50417;SDS011;36346;48.280;14.292;2022-09-09T03:55:59;4.65;;;4.65;;
50417;SDS011;36346;48.280;14.292;2022-09-09T03:58:29;4.69;;;4.69;;
50417;SDS011;36346;48.280;14.292;2022-09-09T04:01:03;4.72;;;4.72;;
50417;SDS011;36346;48.280;14.292;2022-09-09T04:03:32;4.77;;;4.77;;
50417;SDS011;36346;48.280;14.292;2022-09-09T04:06:00;4.89;;;4.89;;
50417;SDS011;36346;48.280;14.292;2022-09-09T04:08:30;5.10;;;5.10;;
50417;SDS011;36346;48.280;14.292;2022-09-09T04:11:00;5.09;;;5.09;;
50417;SDS011;36346;48.280;14.292;2022-09-09T04:13:29;5.89;;;5.89;;
50417;SDS011;36346;48.280;14.292;2022-09-09T04:15:59;5.78;;;5.78;;
50417;SDS011;36346;48.280;14.292;2022-09-09T04:18:27;5.24;;;5.24;;
50417;SDS011;36346;48.280;14.292;2022-09-09T04:20:55;5.41;;;5.41;;
50417;SDS011;36346;48.280;14.292;2022-09-09T04:23:27;5.85;;;5.85;;
50417;SDS011;36346;48.280;14.292;2022-09-09T04:25:58;6.39;;;6.39;;
50417;SDS011;36346;48.280;14.292;2022-09-09T04:28:28;6.53;;;6.53;;
50417;SDS011;36346;48.280;14.292;2022-09-09T04:31:03;7.02;;;7.02;;
50417;SDS011;36346;48.280;14.292;2022-09-09T04:33:32;7.09;;;7.09;;
50417;SDS011;36346;48.280;14.292;2022-09-09T04:36:06;7.00;;;7.00;;
50417;SDS011;36346;48.280;14.292;2022-09-09T04:38:35;6.75;;;6.75;;
50417;SDS011;36346;48.280;14.292;2022-09-09T04:41:03;7.12;;;7.12;;
50417;SDS011;36346;48.280;14.292;2022-09-09T04:43:34;7.03;;;7.03;;
50417;SDS011;36346;48.280;14.292;2022-09-09T04:46:04;6.76;;;6.75;;
50417;SDS011;36346;48.280;14.292;2022-09-09T04:48:32;6.50;;;6.50;;
50417;SDS011;36346;48.280;14.292;2022-09-09T04:51:05;6.81;;;6.76;;
50417;SDS011;36346;48.280;14.292;2022-09-09T04:53:34;6.95;;;6.94;;
50417;SDS011;36346;48.280;14.292;2022-09-09T04:58:37;7.13;;;7.13;;
50417;SDS011;36346;48.280;14.292;2022-09-09T05:01:07;7.12;;;7.12;;
50417;SDS011;36346;48.280;14.292;2022-09-09T05:03:37;7.12;;;7.11;;
50417;SDS011;36346;48.280;14.292;2022-09-09T05:06:09;7.28;;;7.28;;
50417;SDS011;36346;48.280;14.292;2022-09-09T05:08:38;8.42;;;8.34;;
50417;SDS011;36346;48.280;14.292;2022-09-09T05:11:23;9.26;;;8.72;;
50417;SDS011;36346;48.280;14.292;2022-09-09T05:13:53;9.12;;;8.63;;
50417;SDS011;36346;48.280;14.292;2022-09-09T05:16:22;8.47;;;8.21;;
50417;SDS011;36346;48.280;14.292;2022-09-09T05:18:50;8.17;;;7.98;;
50417;SDS011;36346;48.280;14.292;2022-09-09T05:21:20;8.57;;;8.31;;
50417;SDS011;36346;48.280;14.292;2022-09-09T05:23:48;9.27;;;9.00;;
50417;SDS011;36346;48.280;14.292;2022-09-09T05:26:19;9.08;;;8.93;;
50417;SDS011;36346;48.280;14.292;2022-09-09T05:28:50;9.25;;;9.07;;
50417;SDS011;36346;48.280;14.292;2022-09-09T05:31:18;9.25;;;9.12;;
50417;SDS011;36346;48.280;14.292;2022-09-09T05:33:49;10.05;;;9.95;;
50417;SDS011;36346;48.280;14.292;2022-09-09T05:36:18;9.95;;;9.86;;
50417;SDS011;36346;48.280;14.292;2022-09-09T05:38:49;10.62;;;10.49;;
50417;SDS011;36346;48.280;14.292;2022-09-09T05:41:19;10.28;;;10.16;;
50417;SDS011;36346;48.280;14.292;2022-09-09T05:43:47;9.86;;;9.81;;
50417;SDS011;36346;48.280;14.292;2022-09-09T05:46:17;9.86;;;9.84;;
50417;SDS011;36346;48.280;14.292;2022-09-09T05:48:48;9.94;;;9.90;;
50417;SDS011;36346;48.280;14.292;2022-09-09T05:51:22;10.10;;;10.08;;
50417;SDS011;36346;48.280;14.292;2022-09-09T05:53:51;10.08;;;10.07;;
50417;SDS011;36346;48.280;14.292;2022-09-09T05:56:20;9.96;;;9.94;;
50417;SDS011;36346;48.280;14.292;2022-09-09T05:58:53;10.26;;;10.14;;
50417;SDS011;36346;48.280;14.292;2022-09-09T06:01:26;9.57;;;9.48;;
50417;SDS011;36346;48.280;14.292;2022-09-09T06:03:54;10.07;;;10.03;;
50417;SDS011;36346;48.280;14.292;2022-09-09T06:06:24;10.87;;;10.84;;
50417;SDS011;36346;48.280;14.292;2022-09-09T06:08:56;9.79;;;9.79;;
50417;SDS011;36346;48.280;14.292;2022-09-09T06:11:34;10.18;;;10.16;;
50417;SDS011;36346;48.280;14.292;2022-09-09T06:14:03;10.90;;;10.89;;
50417;SDS011;36346;48.280;14.292;2022-09-09T06:16:32;10.62;;;10.62;;
50417;SDS011;36346;48.280;14.292;2022-09-09T06:19:01;11.43;;;11.43;;
50417;SDS011;36346;48.280;14.292;2022-09-09T06:21:34;11.71;;;11.71;;
50417;SDS011;36346;48.280;14.292;2022-09-09T06:24:06;12.03;;;12.01;;
50417;SDS011;36346;48.280;14.292;2022-09-09T06:26:39;12.28;;;12.25;;
50417;SDS011;36346;48.280;14.292;2022-09-09T06:29:11;13.63;;;13.62;;
50417;SDS011;36346;48.280;14.292;2022-09-09T06:31:40;13.97;;;13.88;;
50417;SDS011;36346;48.280;14.292;2022-09-09T06:34:18;15.36;;;15.28;;
50417;SDS011;36346;48.280;14.292;2022-09-09T06:36:50;15.13;;;15.11;;
50417;SDS011;36346;48.280;14.292;2022-09-09T06:39:18;15.58;;;15.55;;
50417;SDS011;36346;48.280;14.292;2022-09-09T06:41:46;15.18;;;15.15;;
50417;SDS011;36346;48.280;14.292;2022-09-09T06:44:34;15.86;;;15.81;;
50417;SDS011;36346;48.280;14.292;2022-09-09T06:47:05;14.47;;;14.42;;
50417;SDS011;36346;48.280;14.292;2022-09-09T06:49:33;12.02;;;12.00;;
50417;SDS011;36346;48.280;14.292;2022-09-09T06:52:05;11.02;;;11.02;;
50417;SDS011;36346;48.280;14.292;2022-09-09T06:54:33;11.43;;;11.42;;
50417;SDS011;36346;48.280;14.292;2022-09-09T06:57:04;11.48;;;11.47;;
50417;SDS011;36346;48.280;14.292;2022-09-09T06:59:55;11.86;;;11.85;;
50417;SDS011;36346;48.280;14.292;2022-09-09T07:02:23;12.26;;;12.21;;
50417;SDS011;36346;48.280;14.292;2022-09-09T07:04:51;15.49;;;15.47;;
50417;SDS011;36346;48.280;14.292;2022-09-09T07:07:19;19.01;;;18.97;;
50417;SDS011;36346;48.280;14.292;2022-09-09T07:09:47;20.14;;;20.07;;
50417;SDS011;36346;48.280;14.292;2022-09-09T07:12:16;24.09;;;23.96;;
50417;SDS011;36346;48.280;14.292;2022-09-09T07:14:52;24.08;;;23.92;;
50417;SDS011;36346;48.280;14.292;2022-09-09T07:17:20;24.98;;;24.85;;
50417;SDS011;36346;48.280;14.292;2022-09-09T07:19:47;22.85;;;22.60;;
50417;SDS011;36346;48.280;14.292;2022-09-09T07:22:16;21.36;;;21.21;;
50417;SDS011;36346;48.280;14.292;2022-09-09T07:24:44;20.92;;;20.76;;
50417;SDS011;36346;48.280;14.292;2022-09-09T07:27:13;18.38;;;18.28;;
50417;SDS011;36346;48.280;14.292;2022-09-09T07:29:41;17.43;;;17.38;;
50417;SDS011;36346;48.280;14.292;2022-09-09T07:32:10;17.70;;;17.54;;
50417;SDS011;36346;48.280;14.292;2022-09-09T07:34:38;19.87;;;19.75;;
50417;SDS011;36346;48.280;14.292;2022-09-09T07:37:06;20.17;;;20.10;;
50417;SDS011;36346;48.280;14.292;2022-09-09T07:39:35;20.03;;;19.99;;
50417;SDS011;36346;48.280;14.292;2022-09-09T07:42:03;19.76;;;19.66;;
50417;SDS011;36346;48.280;14.292;2022-09-09T07:44:31;17.63;;;17.56;;
50417;SDS011;36346;48.280;14.292;2022-09-09T07:47:09;14.59;;;14.50;;
50417;SDS011;36346;48.280;14.292;2022-09-09T07:49:42;14.37;;;14.36;;
50417;SDS011;36346;48.280;14.292;2022-09-09T07:52:09;13.99;;;13.99;;
50417;SDS011;36346;48.280;14.292;2022-09-09T07:54:42;13.66;;;13.63;;
50417;SDS011;36346;48.280;14.292;2022-09-09T07:57:10;14.79;;;14.76;;
50417;SDS011;36346;48.280;14.292;2022-09-09T07:59:39;16.18;;;16.17;;
50417;SDS011;36346;48.280;14.292;2022-09-09T08:02:08;15.32;;;15.31;;
50417;SDS011;36346;48.280;14.292;2022-09-09T08:04:37;15.45;;;15.41;;
50417;SDS011;36346;48.280;14.292;2022-09-09T08:07:05;13.79;;;13.78;;
50417;SDS011;36346;48.280;14.292;2022-09-09T08:09:43;12.17;;;12.17;;
50417;SDS011;36346;48.280;14.292;2022-09-09T08:12:17;11.46;;;11.46;;
50417;SDS011;36346;48.280;14.292;2022-09-09T08:14:45;11.15;;;11.15;;
50417;SDS011;36346;48.280;14.292;2022-09-09T08:17:13;11.42;;;11.41;;
50417;SDS011;36346;48.280;14.292;2022-09-09T08:19:42;10.07;;;10.06;;
50417;SDS011;36346;48.280;14.292;2022-09-09T08:22:14;8.85;;;8.85;;
50417;SDS011;36346;48.280;14.292;2022-09-09T08:24:42;8.95;;;8.95;;
50417;SDS011;36346;48.280;14.292;2022-09-09T08:27:09;8.70;;;8.69;;
50417;SDS011;36346;48.280;14.292;2022-09-09T08:29:38;8.95;;;8.95;;
50417;SDS011;36346;48.280;14.292;2022-09-09T08:32:06;9.06;;;9.05;;
50417;SDS011;36346;48.280;14.292;2022-09-09T08:34:35;8.15;;;8.15;;
50417;SDS011;36346;48.280;14.292;2022-09-09T08:37:11;8.02;;;8.02;;
50417;SDS011;36346;48.280;14.292;2022-09-09T08:39:40;8.66;;;8.66;;
50417;SDS011;36346;48.280;14.292;2022-09-09T08:42:11;9.30;;;9.30;;
50417;SDS011;36346;48.280;14.292;2022-09-09T08:55:22;10.01;;;10.01;;
50417;SDS011;36346;48.280;14.292;2022-09-09T08:57:56;10.04;;;10.03;;
50417;SDS011;36346;48.280;14.292;2022-09-09T09:00:29;9.91;;;9.90;;
50417;SDS011;36346;48.280;14.292;2022-09-09T09:05:36;9.57;;;9.56;;
50417;SDS011;36346;48.280;14.292;2022-09-09T09:11:06;9.91;;;9.90;;
50417;SDS011;36346;48.280;14.292;2022-09-09T09:19:00;9.84;;;9.83;;
50417;SDS011;36346;48.280;14.292;2022-09-09T09:21:36;11.30;;;11.30;;
50417;SDS011;36346;48.280;14.292;2022-09-09T09:24:28;12.07;;;12.05;;
50417;SDS011;36346;48.280;14.292;2022-09-09T09:27:00;13.02;;;13.02;;
50417;SDS011;36346;48.280;14.292;2022-09-09T09:29:41;11.95;;;11.95;;
50417;SDS011;36346;48.280;14.292;2022-09-09T09:32:33;14.21;;;14.19;;
50417;SDS011;36346;48.280;14.292;2022-09-09T09:35:06;16.05;;;15.99;;
50417;SDS011;36346;48.280;14.292;2022-09-09T09:37:41;20.04;;;20.03;;
50417;SDS011;36346;48.280;14.292;2022-09-09T09:40:31;22.77;;;22.69;;
50417;SDS011;36346;48.280;14.292;2022-09-09T09:43:02;26.35;;;26.22;;
50417;SDS011;36346;48.280;14.292;2022-09-09T09:45:42;26.45;;;26.33;;
50417;SDS011;36346;48.280;14.292;2022-09-09T09:48:34;26.76;;;26.71;;
50417;SDS011;36346;48.280;14.292;2022-09-09T09:51:05;26.13;;;26.00;;
50417;SDS011;36346;48.280;14.292;2022-09-09T09:53:39;26.73;;;26.58;;
50417;SDS011;36346;48.280;14.292;2022-09-09T09:56:13;26.52;;;26.41;;
50417;SDS011;36346;48.280;14.292;2022-09-09T10:01:22;15.34;;;15.23;;
50417;SDS011;36346;48.280;14.292;2022-09-09T10:03:52;13.57;;;13.50;;
50417;SDS011;36346;48.280;14.292;2022-09-09T10:06:30;13.03;;;12.90;;
50417;SDS011;36346;48.280;14.292;2022-09-09T10:08:58;11.37;;;11.34;;
50417;SDS011;36346;48.280;14.292;2022-09-09T10:11:48;10.91;;;10.91;;
50417;SDS011;36346;48.280;14.292;2022-09-09T10:14:22;11.37;;;11.35;;
50417;SDS011;36346;48.280;14.292;2022-09-09T10:35:18;11.14;;;11.14;;
50417;SDS011;36346;48.280;14.292;2022-09-09T10:38:12;11.77;;;11.76;;
50417;SDS011;36346;48.280;14.292;2022-09-09T10:48:24;12.40;;;12.37;;
50417;SDS011;36346;48.280;14.292;2022-09-09T10:56:07;11.87;;;11.86;;
50417;SDS011;36346;48.280;14.292;2022-09-09T10:58:56;14.61;;;14.56;;
50417;SDS011;36346;48.280;14.292;2022-09-09T11:01:36;16.83;;;16.80;;
50417;SDS011;36346;48.280;14.292;2022-09-09T11:04:11;19.42;;;19.27;;
50417;SDS011;36346;48.280;14.292;2022-09-09T11:06:45;20.95;;;20.72;;
50417;SDS011;36346;48.280;14.292;2022-09-09T11:09:16;21.29;;;21.14;;
50417;SDS011;36346;48.280;14.292;2022-09-09T11:11:53;21.58;;;21.40;;
50417;SDS011;36346;48.280;14.292;2022-09-09T11:14:30;20.94;;;20.71;;
50417;SDS011;36346;48.280;14.292;2022-09-09T11:17:49;18.59;;;18.56;;
50417;SDS011;36346;48.280;14.292;2022-09-09T11:19:56;17.00;;;16.92;;
50417;SDS011;36346;48.280;14.292;2022-09-09T11:22:30;16.00;;;15.91;;
50417;SDS011;36346;48.280;14.292;2022-09-09T11:27:37;15.15;;;15.15;;
50417;SDS011;36346;48.280;14.292;2022-09-09T11:38:05;13.53;;;13.53;;
50417;SDS011;36346;48.280;14.292;2022-09-09T11:40:39;14.27;;;14.27;;
50417;SDS011;36346;48.280;14.292;2022-09-09T11:45:35;14.79;;;14.79;;
50417;SDS011;36346;48.280;14.292;2022-09-09T11:48:04;14.40;;;14.40;;
50417;SDS011;36346;48.280;14.292;2022-09-09T11:50:36;14.07;;;14.07;;
50417;SDS011;36346;48.280;14.292;2022-09-09T11:53:18;13.26;;;13.26;;
50417;SDS011;36346;48.280;14.292;2022-09-09T11:55:59;12.38;;;12.38;;
50417;SDS011;36346;48.280;14.292;2022-09-09T11:58:28;12.25;;;12.25;;
50417;SDS011;36346;48.280;14.292;2022-09-09T12:01:01;12.92;;;12.92;;
50417;SDS011;36346;48.280;14.292;2022-09-09T12:03:50;12.06;;;12.06;;
50417;SDS011;36346;48.280;14.292;2022-09-09T12:06:25;12.00;;;12.00;;
50417;SDS011;36346;48.280;14.292;2022-09-09T12:09:04;11.84;;;11.84;;
50417;SDS011;36346;48.280;14.292;2022-09-09T12:11:33;11.19;;;11.19;;
50417;SDS011;36346;48.280;14.292;2022-09-09T12:14:01;11.45;;;11.45;;
50417;SDS011;36346;48.280;14.292;2022-09-09T12:19:05;11.32;;;11.32;;
50417;SDS011;36346;48.280;14.292;2022-09-09T12:21:58;11.59;;;11.59;;
50417;SDS011;36346;48.280;14.292;2022-09-09T12:24:43;11.07;;;11.07;;
50417;SDS011;36346;48.280;14.292;2022-09-09T12:27:19;10.54;;;10.54;;
50417;SDS011;36346;48.280;14.292;2022-09-09T12:29:58;9.56;;;9.56;;
50417;SDS011;36346;48.280;14.292;2022-09-09T12:32:30;9.25;;;9.25;;
50417;SDS011;36346;48.280;14.292;2022-09-09T12:34:59;9.65;;;9.65;;
50417;SDS011;36346;48.280;14.292;2022-09-09T12:42:50;9.23;;;9.23;;
50417;SDS011;36346;48.280;14.292;2022-09-09T12:45:25;8.49;;;8.49;;
50417;SDS011;36346;48.280;14.292;2022-09-09T12:47:57;8.63;;;8.63;;
50417;SDS011;36346;48.280;14.292;2022-09-09T12:50:29;7.90;;;7.90;;
50417;SDS011;36346;48.280;14.292;2022-09-09T12:53:02;8.08;;;8.08;;
50417;SDS011;36346;48.280;14.292;2022-09-09T12:55:32;7.75;;;7.75;;
50417;SDS011;36346;48.280;14.292;2022-09-09T12:58:03;7.96;;;7.96;;
50417;SDS011;36346;48.280;14.292;2022-09-09T13:00:33;7.70;;;7.70;;
50417;SDS011;36346;48.280;14.292;2022-09-09T13:03:02;7.30;;;7.30;;
50417;SDS011;36346;48.280;14.292;2022-09-09T13:05:43;7.87;;;7.87;;
50417;SDS011;36346;48.280;14.292;2022-09-09T13:08:11;8.21;;;8.21;;
50417;SDS011;36346;48.280;14.292;2022-09-09T13:10:46;6.94;;;6.94;;
50417;SDS011;36346;48.280;14.292;2022-09-09T13:13:33;6.61;;;6.61;;
50417;SDS011;36346;48.280;14.292;2022-09-09T13:16:03;6.78;;;6.78;;
50417;SDS011;36346;48.280;14.292;2022-09-09T13:18:36;6.34;;;6.34;;
50417;SDS011;36346;48.280;14.292;2022-09-09T13:21:07;6.75;;;6.75;;
50417;SDS011;36346;48.280;14.292;2022-09-09T13:23:36;6.54;;;6.54;;
50417;SDS011;36346;48.280;14.292;2022-09-09T13:26:05;7.50;;;7.50;;
50417;SDS011;36346;48.280;14.292;2022-09-09T13:28:35;7.13;;;7.13;;
50417;SDS011;36346;48.280;14.292;2022-09-09T13:31:03;7.48;;;7.48;;
50417;SDS011;36346;48.280;14.292;2022-09-09T13:33:33;7.18;;;7.18;;
50417;SDS011;36346;48.280;14.292;2022-09-09T13:36:09;7.22;;;7.22;;
50417;SDS011;36346;48.280;14.292;2022-09-09T13:38:38;6.74;;;6.74;;
50417;SDS011;36346;48.280;14.292;2022-09-09T13:41:08;7.40;;;7.40;;
50417;SDS011;36346;48.280;14.292;2022-09-09T13:43:38;7.34;;;7.34;;
50417;SDS011;36346;48.280;14.292;2022-09-09T13:49:01;7.72;;;7.72;;
50417;SDS011;36346;48.280;14.292;2022-09-09T13:51:37;7.97;;;7.97;;
50417;SDS011;36346;48.280;14.292;2022-09-09T13:54:05;7.15;;;7.15;;
50417;SDS011;36346;48.280;14.292;2022-09-09T13:56:34;6.90;;;6.90;;
50417;SDS011;36346;48.280;14.292;2022-09-09T13:59:03;6.85;;;6.85;;
50417;SDS011;36346;48.280;14.292;2022-09-09T14:01:31;7.02;;;7.02;;
50417;SDS011;36346;48.280;14.292;2022-09-09T14:04:02;7.32;;;7.32;;
50417;SDS011;36346;48.280;14.292;2022-09-09T14:06:29;7.11;;;7.11;;
50417;SDS011;36346;48.280;14.292;2022-09-09T14:08:57;7.71;;;7.71;;
50417;SDS011;36346;48.280;14.292;2022-09-09T14:11:25;7.56;;;7.56;;
50417;SDS011;36346;48.280;14.292;2022-09-09T14:13:53;7.99;;;7.99;;
50417;SDS011;36346;48.280;14.292;2022-09-09T14:16:20;8.10;;;8.10;;
50417;SDS011;36346;48.280;14.292;2022-09-09T14:18:49;9.12;;;9.12;;
50417;SDS011;36346;48.280;14.292;2022-09-09T14:21:16;8.42;;;8.42;;
50417;SDS011;36346;48.280;14.292;2022-09-09T14:23:44;10.74;;;10.73;;
50417;SDS011;36346;48.280;14.292;2022-09-09T14:26:11;10.44;;;10.44;;
50417;SDS011;36346;48.280;14.292;2022-09-09T14:28:40;10.98;;;10.98;;
50417;SDS011;36346;48.280;14.292;2022-09-09T14:31:24;11.10;;;11.10;;
50417;SDS011;36346;48.280;14.292;2022-09-09T14:33:52;11.03;;;11.03;;
50417;SDS011;36346;48.280;14.292;2022-09-09T14:36:20;11.13;;;11.13;;
50417;SDS011;36346;48.280;14.292;2022-09-09T14:38:48;11.33;;;11.33;;
50417;SDS011;36346;48.280;14.292;2022-09-09T14:41:17;11.50;;;11.50;;
50417;SDS011;36346;48.280;14.292;2022-09-09T14:43:45;11.77;;;11.77;;
50417;SDS011;36346;48.280;14.292;2022-09-09T14:46:14;10.98;;;10.98;;
50417;SDS011;36346;48.280;14.292;2022-09-09T14:48:43;10.27;;;10.27;;
50417;SDS011;36346;48.280;14.292;2022-09-09T14:51:13;10.32;;;10.32;;
50417;SDS011;36346;48.280;14.292;2022-09-09T14:53:43;10.14;;;10.14;;
50417;SDS011;36346;48.280;14.292;2022-09-09T14:56:12;10.45;;;10.45;;
50417;SDS011;36346;48.280;14.292;2022-09-09T14:58:41;10.63;;;10.63;;
50417;SDS011;36346;48.280;14.292;2022-09-09T15:01:09;10.54;;;10.54;;
50417;SDS011;36346;48.280;14.292;2022-09-09T15:03:38;10.30;;;10.30;;
50417;SDS011;36346;48.280;14.292;2022-09-09T15:06:11;10.77;;;10.77;;
50417;SDS011;36346;48.280;14.292;2022-09-09T15:08:40;10.06;;;10.06;;
50417;SDS011;36346;48.280;14.292;2022-09-09T15:11:09;9.35;;;9.35;;
50417;SDS011;36346;48.280;14.292;2022-09-09T15:13:38;10.73;;;10.73;;
50417;SDS011;36346;48.280;14.292;2022-09-09T15:16:08;10.33;;;10.33;;
50417;SDS011;36346;48.280;14.292;2022-09-09T15:18:36;9.64;;;9.64;;
50417;SDS011;36346;48.280;14.292;2022-09-09T15:21:07;9.31;;;9.31;;
50417;SDS011;36346;48.280;14.292;2022-09-09T15:23:35;10.14;;;10.14;;
50417;SDS011;36346;48.280;14.292;2022-09-09T15:26:04;9.44;;;9.44;;
50417;SDS011;36346;48.280;14.292;2022-09-09T15:28:33;8.70;;;8.70;;
50417;SDS011;36346;48.280;14.292;2022-09-09T15:31:05;7.19;;;7.19;;
50417;SDS011;36346;48.280;14.292;2022-09-09T15:33:34;6.65;;;6.65;;
50417;SDS011;36346;48.280;14.292;2022-09-09T15:38:41;5.37;;;5.37;;
50417;SDS011;36346;48.280;14.292;2022-09-09T15:41:09;5.29;;;5.29;;
50417;SDS011;36346;48.280;14.292;2022-09-09T15:43:37;5.51;;;5.51;;
50417;SDS011;36346;48.280;14.292;2022-09-09T15:48:44;6.35;;;6.35;;
50417;SDS011;36346;48.280;14.292;2022-09-09T15:51:15;6.25;;;6.25;;
50417;SDS011;36346;48.280;14.292;2022-09-09T15:54:03;7.11;;;7.11;;
50417;SDS011;36346;48.280;14.292;2022-09-09T15:56:31;6.86;;;6.86;;
50417;SDS011;36346;48.280;14.292;2022-09-09T15:59:00;7.17;;;7.17;;
50417;SDS011;36346;48.280;14.292;2022-09-09T16:01:29;7.38;;;7.37;;
50417;SDS011;36346;48.280;14.292;2022-09-09T16:03:58;6.84;;;6.84;;
50417;SDS011;36346;48.280;14.292;2022-09-09T16:06:28;6.65;;;6.65;;
50417;SDS011;36346;48.280;14.292;2022-09-09T16:08:56;6.33;;;6.33;;
50417;SDS011;36346;48.280;14.292;2022-09-09T16:11:25;6.26;;;6.26;;
50417;SDS011;36346;48.280;14.292;2022-09-09T16:13:55;6.54;;;6.54;;
50417;SDS011;36346;48.280;14.292;2022-09-09T16:16:24;6.15;;;6.15;;
50417;SDS011;36346;48.280;14.292;2022-09-09T16:18:56;6.32;;;6.32;;
50417;SDS011;36346;48.280;14.292;2022-09-09T16:21:26;6.60;;;6.60;;
50417;SDS011;36346;48.280;14.292;2022-09-09T16:23:57;6.26;;;6.26;;
50417;SDS011;36346;48.280;14.292;2022-09-09T16:26:27;5.86;;;5.86;;
50417;SDS011;36346;48.280;14.292;2022-09-09T16:28:56;5.84;;;5.84;;
50417;SDS011;36346;48.280;14.292;2022-09-09T16:31:26;5.94;;;5.94;;
50417;SDS011;36346;48.280;14.292;2022-09-09T16:33:55;6.76;;;6.76;;
50417;SDS011;36346;48.280;14.292;2022-09-09T16:36:25;6.21;;;6.19;;
50417;SDS011;36346;48.280;14.292;2022-09-09T16:38:53;6.33;;;6.33;;
50417;SDS011;36346;48.280;14.292;2022-09-09T16:41:26;6.52;;;6.52;;
50417;SDS011;36346;48.280;14.292;2022-09-09T16:43:56;7.10;;;7.10;;
50417;SDS011;36346;48.280;14.292;2022-09-09T16:46:29;7.41;;;7.41;;
50417;SDS011;36346;48.280;14.292;2022-09-09T16:48:58;7.99;;;7.99;;
50417;SDS011;36346;48.280;14.292;2022-09-09T16:51:29;7.21;;;7.19;;
50417;SDS011;36346;48.280;14.292;2022-09-09T16:53:59;7.70;;;7.70;;